createdAt,value
2023-01-23T00:01:31.946Z,98114.44
2023-01-23T00:03:59.312Z,98119.84
2023-01-23T00:06:27.212Z,98117.88
2023-01-23T00:08:56.452Z,98115.16
2023-01-23T00:11:26.415Z,98119.84
2023-01-23T00:13:53.933Z,98118.34
2023-01-23T00:16:22.898Z,98129.41
2023-01-23T00:18:50.406Z,98123.50
2023-01-23T00:21:19.949Z,98122.75
2023-01-23T00:23:49.269Z,98116.13
2023-01-23T00:26:18.963Z,98122.03
2023-01-23T00:28:47.096Z,98122.03
2023-01-23T00:31:20.724Z,98113.19
2023-01-23T00:33:54.431Z,98113.69
2023-01-23T00:36:23.368Z,98111.72
2023-01-23T00:38:50.148Z,98109.75
2023-01-23T00:41:16.997Z,98105.59
2023-01-23T00:43:43.686Z,98113.69
2023-01-23T00:46:10.852Z,98104.09
2023-01-23T00:48:39.467Z,98105.34
2023-01-23T00:51:06.625Z,98115.41
2023-01-23T00:53:33.467Z,98114.69
2023-01-23T00:56:00.225Z,98113.94
2023-01-23T00:58:27.060Z,98111.25
2023-01-23T01:00:54.376Z,98122.28
2023-01-23T01:03:21.892Z,98118.84
2023-01-23T01:05:48.747Z,98120.31
2023-01-23T01:08:15.796Z,98113.69
2023-01-23T01:10:42.912Z,98110.75
2023-01-23T01:13:10.735Z,98118.84
2023-01-23T01:15:38.015Z,98110.53
2023-01-23T01:18:04.951Z,98115.19
2023-01-23T01:20:32.018Z,98121.06
2023-01-23T01:23:00.577Z,98128.44
2023-01-23T01:25:27.951Z,98126.25
2023-01-23T01:27:56.119Z,98125.50
2023-01-23T01:30:23.273Z,98122.06
2023-01-23T01:32:50.102Z,98123.53
2023-01-23T01:35:16.874Z,98119.38
2023-01-23T01:37:43.650Z,98120.84
2023-01-23T01:40:15.881Z,98120.84
2023-01-23T01:42:52.108Z,98126.75
2023-01-23T01:45:56.485Z,98124.53
2023-01-23T01:48:26.088Z,98130.19
2023-01-23T01:50:53.361Z,98127.00
2023-01-23T01:53:22.288Z,98129.47
2023-01-23T01:55:49.635Z,98119.66
2023-01-23T01:58:16.517Z,98124.81
2023-01-23T02:00:43.782Z,98127.03
2023-01-23T02:03:10.944Z,98128.03
2023-01-23T02:05:43.823Z,98126.06
2023-01-23T02:08:16.992Z,98126.56
2023-01-23T02:10:46.247Z,98120.94
2023-01-23T02:13:28.513Z,98120.94
2023-01-23T02:15:57.504Z,98127.81
2023-01-23T02:18:24.535Z,98129.03
2023-01-23T02:20:53.268Z,98121.91
2023-01-23T02:23:50.381Z,98127.59
2023-01-23T02:26:29.030Z,98127.84
2023-01-23T02:28:56.121Z,98131.03
2023-01-23T02:31:27.018Z,98128.09
2023-01-23T02:33:57.369Z,98127.34
2023-01-23T02:36:27.929Z,98124.66
2023-01-23T02:39:02.705Z,98125.91
2023-01-23T02:41:32.110Z,98128.09
2023-01-23T02:44:02.952Z,98134.00
2023-01-23T02:46:30.492Z,98124.91
2023-01-23T02:48:58.103Z,98131.53
2023-01-23T02:51:24.987Z,98123.94
2023-01-23T02:53:51.910Z,98127.88
2023-01-23T02:56:19.923Z,98128.59
2023-01-23T02:59:07.329Z,98125.19
2023-01-23T03:01:35.800Z,98125.19
2023-01-23T03:04:06.560Z,98127.38
2023-01-23T03:06:38.094Z,98134.00
2023-01-23T03:09:08.750Z,98133.00
2023-01-23T03:11:38.148Z,98135.72
2023-01-23T03:14:07.217Z,98140.13
2023-01-23T03:16:37.201Z,98140.13
2023-01-23T03:19:09.051Z,98145.03
2023-01-23T03:21:40.104Z,98134.97
2023-01-23T03:24:09.775Z,98133.75
2023-01-23T03:26:45.087Z,98135.69
2023-01-23T03:29:41.594Z,98138.91
2023-01-23T03:32:10.867Z,98133.75
2023-01-23T03:34:38.139Z,98135.94
2023-01-23T03:37:05.526Z,98134.00
2023-01-23T03:39:52.132Z,98136.69
2023-01-23T03:42:20.776Z,98132.75
2023-01-23T03:44:51.014Z,98140.34
2023-01-23T03:47:18.659Z,98127.63
2023-01-23T03:49:49.182Z,98120.97
2023-01-23T03:52:16.744Z,98128.56
2023-01-23T03:54:43.652Z,98121.22
2023-01-23T03:57:11.187Z,98131.28
2023-01-23T04:00:02.269Z,98123.41
2023-01-23T04:02:40.704Z,98134.19
2023-01-23T04:05:10.274Z,98125.88
2023-01-23T04:07:37.755Z,98127.34
2023-01-23T04:10:05.513Z,98130.03
2023-01-23T04:12:32.452Z,98127.84
2023-01-23T04:14:59.741Z,98122.44
2023-01-23T04:17:28.206Z,98112.16
2023-01-23T04:19:55.102Z,98113.34
2023-01-23T04:22:22.110Z,98106.78
2023-01-23T04:24:50.611Z,98116.81
2023-01-23T04:27:17.589Z,98125.91
2023-01-23T04:29:44.273Z,98117.28
2023-01-23T04:32:11.732Z,98119.50
2023-01-23T04:34:44.227Z,98111.16
2023-01-23T04:37:11.285Z,98109.69
2023-01-23T04:39:39.063Z,98110.44
2023-01-23T04:42:05.930Z,98116.59
2023-01-23T04:45:05.549Z,98121.25
2023-01-23T04:47:51.531Z,98124.16
2023-01-23T04:50:18.776Z,98139.88
2023-01-23T04:52:46.625Z,98120.00
2023-01-23T04:55:14.092Z,98127.88
2023-01-23T04:57:42.877Z,98134.22
2023-01-23T05:00:23.885Z,98139.88
2023-01-23T05:02:51.632Z,98136.69
2023-01-23T05:05:20.876Z,98130.56
2023-01-23T05:07:50.721Z,98139.16
2023-01-23T05:10:18.756Z,98134.97
2023-01-23T05:12:47.000Z,98146.25
2023-01-23T05:15:13.795Z,98132.03
2023-01-23T05:17:42.034Z,98131.81
2023-01-23T05:20:10.964Z,98125.66
2023-01-23T05:22:52.707Z,98130.09
2023-01-23T05:25:25.954Z,98134.03
2023-01-23T05:27:55.064Z,98137.97
2023-01-23T05:30:23.580Z,98134.50
2023-01-23T05:32:54.832Z,98140.88
2023-01-23T05:35:22.227Z,98134.75
2023-01-23T05:37:52.966Z,98138.69
2023-01-23T05:40:23.415Z,98146.06
2023-01-23T05:43:16.947Z,98143.34
2023-01-23T05:46:13.083Z,98136.22
2023-01-23T05:48:51.702Z,98136.22
2023-01-23T05:51:20.889Z,98134.53
2023-01-23T05:53:48.075Z,98136.44
2023-01-23T05:56:16.975Z,98127.38
2023-01-23T05:59:04.003Z,98140.88
2023-01-23T06:01:42.847Z,98140.63
2023-01-23T06:04:28.403Z,98132.75
2023-01-23T06:07:15.200Z,98125.91
2023-01-23T06:09:42.860Z,98129.09
2023-01-23T06:12:10.340Z,98126.13
2023-01-23T06:14:37.866Z,98119.50
2023-01-23T06:17:06.140Z,98124.44
2023-01-23T06:19:33.218Z,98123.69
2023-01-23T06:22:00.265Z,98132.75
2023-01-23T06:24:31.558Z,98132.25
2023-01-23T06:27:00.020Z,98130.06
2023-01-23T06:29:26.984Z,98133.75
2023-01-23T06:31:53.997Z,98135.47
2023-01-23T06:34:21.537Z,98141.84
2023-01-23T06:36:57.584Z,98135.22
2023-01-23T06:39:25.066Z,98137.66
2023-01-23T06:41:53.530Z,98144.56
2023-01-23T06:44:23.694Z,98150.25
2023-01-23T06:46:52.884Z,98153.41
2023-01-23T06:49:22.402Z,98159.69
2023-01-23T06:51:49.383Z,98156.66
2023-01-23T06:54:16.315Z,98161.66
2023-01-23T06:56:44.484Z,98161.06
2023-01-23T06:59:12.345Z,98156.13
2023-01-23T07:01:41.098Z,98155.63
2023-01-23T07:04:19.859Z,98156.06
2023-01-23T07:06:49.949Z,98155.56
2023-01-23T07:09:18.803Z,98160.66
2023-01-23T07:11:54.054Z,98154.56
2023-01-23T07:14:21.583Z,98155.50
2023-01-23T07:16:51.950Z,98157.38
2023-01-23T07:19:19.000Z,98146.63
2023-01-23T07:21:49.390Z,98156.13
2023-01-23T07:24:17.572Z,98156.84
2023-01-23T07:26:44.554Z,98160.03
2023-01-23T07:29:11.867Z,98156.38
2023-01-23T07:31:38.650Z,98163.88
2023-01-23T07:34:06.050Z,98164.66
2023-01-23T07:36:33.109Z,98172.06
2023-01-23T07:39:00.102Z,98166.69
2023-01-23T07:41:27.165Z,98174.75
2023-01-23T07:43:54.240Z,98172.59
2023-01-23T07:46:21.047Z,98182.47
2023-01-23T07:48:48.509Z,98179.59
2023-01-23T07:51:16.063Z,98176.72
2023-01-23T07:53:45.814Z,98179.19
2023-01-23T07:56:14.149Z,98172.13
2023-01-23T07:58:42.392Z,98176.03
2023-01-23T08:01:11.208Z,98175.53
2023-01-23T08:03:39.178Z,98178.94
2023-01-23T08:06:06.832Z,98176.00
2023-01-23T08:08:34.134Z,98172.09
2023-01-23T08:11:05.372Z,98171.59
2023-01-23T08:13:32.878Z,98172.09
2023-01-23T08:16:00.086Z,98167.91
2023-01-23T08:18:29.728Z,98175.47
2023-01-23T08:20:57.883Z,98177.63
2023-01-23T08:23:26.892Z,98174.22
2023-01-23T08:25:58.515Z,98177.88
2023-01-23T08:28:26.404Z,98169.13
2023-01-23T08:30:54.426Z,98177.34
2023-01-23T08:33:22.378Z,98182.28
2023-01-23T08:35:53.428Z,98181.34
2023-01-23T08:38:20.603Z,98188.88
2023-01-23T08:40:48.367Z,98186.88
2023-01-23T08:43:16.363Z,98182.72
2023-01-23T08:45:49.439Z,98185.50
2023-01-23T08:48:17.222Z,98188.19
2023-01-23T08:50:44.019Z,98183.06
2023-01-23T08:53:11.059Z,98183.31
2023-01-23T08:55:38.998Z,98183.88
2023-01-23T08:58:07.339Z,98190.75
2023-01-23T09:00:34.936Z,98182.94
2023-01-23T09:03:02.820Z,98185.72
2023-01-23T09:05:30.886Z,98173.78
2023-01-23T09:08:02.145Z,98183.59
2023-01-23T09:10:29.324Z,98178.94
2023-01-23T09:12:56.343Z,98178.69
2023-01-23T09:15:23.515Z,98181.63
2023-01-23T09:17:50.571Z,98166.28
2023-01-23T09:20:17.851Z,98191.50
2023-01-23T09:22:45.434Z,98182.47
2023-01-23T09:25:21.553Z,98188.84
2023-01-23T09:27:48.839Z,98182.22
2023-01-23T09:30:15.750Z,98173.94
2023-01-23T09:32:43.740Z,98170.75
2023-01-23T09:35:10.723Z,98179.38
2023-01-23T09:37:59.742Z,98185.50
2023-01-23T09:40:37.085Z,98181.84
2023-01-23T09:43:20.779Z,98181.84
2023-01-23T09:45:57.845Z,98171.56
2023-01-23T09:48:32.497Z,98171.34
2023-01-23T09:51:07.033Z,98173.28
2023-01-23T09:53:39.574Z,98173.53
2023-01-23T09:56:29.315Z,98175.50
2023-01-23T09:59:04.324Z,98158.59
2023-01-23T10:01:31.553Z,98173.03
2023-01-23T10:04:00.509Z,98159.06
2023-01-23T10:06:30.674Z,98179.66
2023-01-23T10:09:06.443Z,98164.72
2023-01-23T10:11:36.507Z,98163.00
2023-01-23T10:14:32.527Z,98162.50
2023-01-23T10:17:05.593Z,98158.06
2023-01-23T10:20:00.967Z,98156.09
2023-01-23T10:22:48.031Z,98159.25
2023-01-23T10:25:20.415Z,98147.75
2023-01-23T10:27:49.194Z,98148.78
2023-01-23T10:30:30.813Z,98160.56
2023-01-23T10:33:10.300Z,98157.13
2023-01-23T10:35:45.691Z,98157.59
2023-01-23T10:38:24.867Z,98169.38
2023-01-23T10:41:10.675Z,98164.72
2023-01-23T10:43:37.499Z,98172.78
2023-01-23T10:46:19.222Z,98170.59
2023-01-23T10:48:51.144Z,98170.59
2023-01-23T10:51:23.997Z,98167.41
2023-01-23T10:54:30.640Z,98168.38
2023-01-23T10:57:23.335Z,98169.38
2023-01-23T11:00:00.640Z,98172.28
2023-01-23T11:02:36.071Z,98156.25
2023-01-23T11:05:25.272Z,98166.53
2023-01-23T11:07:55.629Z,98160.47
2023-01-23T11:10:23.945Z,98158.53
2023-01-23T11:12:55.673Z,98162.50
2023-01-23T11:15:28.536Z,98162.47
2023-01-23T11:17:57.834Z,98164.94
2023-01-23T11:20:32.173Z,98164.19
2023-01-23T11:23:10.932Z,98160.50
2023-01-23T11:25:45.734Z,98157.81
2023-01-23T11:28:24.956Z,98153.41
2023-01-23T11:31:11.506Z,98150.47
2023-01-23T11:33:55.185Z,98141.44
2023-01-23T11:36:30.477Z,98141.94
2023-01-23T11:39:02.178Z,98151.47
2023-01-23T11:41:34.006Z,98139.72
2023-01-23T11:44:09.987Z,98137.75
2023-01-23T11:46:41.205Z,98139.72
2023-01-23T11:49:55.996Z,98128.41
2023-01-23T11:52:42.828Z,98136.75
2023-01-23T11:55:28.855Z,98132.84
2023-01-23T11:58:50.336Z,98133.81
2023-01-23T12:01:23.530Z,98129.88
2023-01-23T12:04:06.052Z,98136.50
2023-01-23T12:06:44.420Z,98126.72
2023-01-23T12:09:18.589Z,98132.81
2023-01-23T12:12:10.147Z,98133.06
2023-01-23T12:14:48.873Z,98120.31
2023-01-23T12:17:27.271Z,98121.56
2023-01-23T12:20:06.125Z,98123.28
2023-01-23T12:22:41.815Z,98119.34
2023-01-23T12:25:33.145Z,98108.31
2023-01-23T12:28:38.648Z,98114.25
2023-01-23T12:31:36.781Z,98116.19
2023-01-23T12:34:12.384Z,98106.63
2023-01-23T12:37:12.114Z,98103.69
2023-01-23T12:40:25.860Z,98097.81
2023-01-23T12:43:04.826Z,98102.25
2023-01-23T12:45:33.159Z,98101.75
2023-01-23T12:48:12.228Z,98099.53
2023-01-23T12:51:31.698Z,98100.00
2023-01-23T12:54:00.780Z,98097.56
2023-01-23T12:56:30.946Z,98096.34
2023-01-23T12:59:00.677Z,98096.59
2023-01-23T13:01:52.161Z,98104.41
2023-01-23T13:04:43.561Z,98103.41
2023-01-23T13:07:35.482Z,98086.53
2023-01-23T13:10:17.242Z,98083.84
2023-01-23T13:12:44.127Z,98086.53
2023-01-23T13:15:19.080Z,98083.81
2023-01-23T13:17:50.173Z,98080.41
2023-01-23T13:20:38.606Z,98089.72
2023-01-23T13:23:30.426Z,98079.44
2023-01-23T13:26:15.822Z,98087.78
2023-01-23T13:28:50.601Z,98085.34
2023-01-23T13:31:34.632Z,98076.75
2023-01-23T13:34:15.445Z,98088.53
2023-01-23T13:36:44.247Z,98089.50
2023-01-23T13:39:17.471Z,98081.16
2023-01-23T13:41:45.131Z,98075.03
2023-01-23T13:44:42.077Z,98070.88
2023-01-23T14:21:49.064Z,98057.13
2023-01-23T14:24:24.238Z,98054.69
2023-01-23T14:26:54.088Z,98076.69
2023-01-23T14:29:25.750Z,98051.72
2023-01-23T14:31:53.080Z,98064.22
2023-01-23T14:34:23.532Z,98051.22
2023-01-23T14:37:04.074Z,98060.03
2023-01-23T14:39:32.880Z,98056.34
2023-01-23T14:42:02.687Z,98053.66
2023-01-23T14:44:38.844Z,98052.63
2023-01-23T14:47:05.908Z,98070.00
2023-01-23T14:49:36.391Z,98063.69
2023-01-23T14:52:05.711Z,98066.16
2023-01-23T14:54:34.423Z,98061.00
2023-01-23T14:57:04.448Z,98075.69
2023-01-23T14:59:41.672Z,98069.53
2023-01-23T15:02:40.937Z,98064.88
2023-01-23T15:05:08.750Z,98071.19
2023-01-23T15:07:42.932Z,98074.13
2023-01-23T15:10:22.304Z,98081.69
2023-01-23T15:13:09.947Z,98082.88
2023-01-23T15:15:37.175Z,98078.22
2023-01-23T15:18:23.471Z,98069.16
2023-01-23T15:21:04.371Z,98070.38
2023-01-23T15:23:31.993Z,98069.81
2023-01-23T15:26:19.645Z,98073.47
2023-01-23T15:28:52.510Z,98078.13
2023-01-23T15:31:25.264Z,98082.97
2023-01-23T15:33:52.545Z,98079.56
2023-01-23T15:36:26.536Z,98076.34
2023-01-23T15:38:54.463Z,98080.50
2023-01-23T15:41:33.912Z,98096.88
2023-01-23T15:44:01.243Z,98083.66
2023-01-23T15:46:27.965Z,98098.13
2023-01-23T15:48:54.778Z,98087.09
2023-01-23T15:51:21.551Z,98096.59
2023-01-23T15:53:48.350Z,98099.03
2023-01-23T15:56:20.278Z,98101.00
2023-01-23T15:58:46.928Z,98078.53
2023-01-23T16:01:13.526Z,98084.16
2023-01-23T16:03:40.254Z,98095.41
2023-01-23T16:06:06.841Z,98092.97
2023-01-23T16:08:33.506Z,98091.78
2023-01-23T16:11:00.147Z,98093.28
2023-01-23T16:13:26.869Z,98096.97
2023-01-23T16:15:53.700Z,98090.63
2023-01-23T16:18:20.491Z,98089.63
2023-01-23T16:20:47.110Z,98100.81
2023-01-23T16:23:16.635Z,98097.69
2023-01-23T16:25:45.434Z,98096.69
2023-01-23T16:28:16.750Z,98100.13
2023-01-23T16:30:43.560Z,98109.13
2023-01-23T16:33:10.249Z,98093.25
2023-01-23T16:35:36.990Z,98107.44
2023-01-23T16:38:03.588Z,98107.91
2023-01-23T16:40:33.756Z,98100.09
2023-01-23T16:43:02.685Z,98104.47
2023-01-23T16:45:30.361Z,98112.09
2023-01-23T16:47:57.686Z,98110.31
2023-01-23T16:50:34.156Z,98113.75
2023-01-23T16:53:12.803Z,98129.91
2023-01-23T16:55:41.748Z,98129.47
2023-01-23T16:58:15.918Z,98125.00
2023-01-23T17:00:43.145Z,98130.75
2023-01-23T17:03:17.097Z,98128.63
2023-01-23T17:05:48.530Z,98135.75
2023-01-23T17:08:18.636Z,98139.22
2023-01-23T17:10:47.257Z,98140.69
2023-01-23T17:13:15.487Z,98144.63
2023-01-23T17:15:43.012Z,98147.81
2023-01-23T17:18:21.211Z,98146.09
2023-01-23T17:20:48.108Z,98148.53
2023-01-23T17:23:14.851Z,98154.16
2023-01-23T17:25:59.749Z,98155.66
2023-01-23T17:28:27.658Z,98149.75
2023-01-23T17:30:55.105Z,98163.22
2023-01-23T17:33:27.748Z,98163.44
2023-01-23T17:35:54.731Z,98158.31
2023-01-23T17:38:24.046Z,98169.59
2023-01-23T17:40:51.137Z,98175.19
2023-01-23T17:43:19.442Z,98166.84
2023-01-23T17:45:48.096Z,98170.78
2023-01-23T17:48:16.976Z,98179.09
2023-01-23T17:50:45.536Z,98166.81
2023-01-23T17:53:16.951Z,98180.81
2023-01-23T17:55:46.997Z,98168.78
2023-01-23T17:58:14.183Z,98180.53
2023-01-23T18:00:42.114Z,98179.56
2023-01-23T18:03:12.998Z,98170.94
2023-01-23T18:05:40.029Z,98174.41
2023-01-23T18:08:07.041Z,98172.19
2023-01-23T18:10:34.985Z,98183.22
2023-01-23T18:13:06.813Z,98171.19
2023-01-23T18:15:43.350Z,98178.78
2023-01-23T18:18:20.476Z,98177.31
2023-01-23T18:20:48.352Z,98175.81
2023-01-23T18:23:15.507Z,98180.22
2023-01-23T18:25:44.642Z,98170.69
2023-01-23T18:28:19.983Z,98176.78
2023-01-23T18:31:26.783Z,98172.81
2023-01-23T18:34:05.942Z,98172.81
2023-01-23T18:36:54.500Z,98174.78
2023-01-23T18:39:44.556Z,98174.25
2023-01-23T18:42:23.422Z,98172.81
2023-01-23T18:44:55.374Z,98168.13
2023-01-23T18:47:22.456Z,98169.88
2023-01-23T18:49:49.559Z,98162.75
2023-01-23T18:52:45.048Z,98170.84
2023-01-23T18:55:21.202Z,98173.03
2023-01-23T18:58:02.505Z,98174.97
2023-01-23T19:00:34.682Z,98179.13
2023-01-23T19:03:10.112Z,98174.47
2023-01-23T19:05:37.055Z,98174.47
2023-01-23T19:08:04.078Z,98182.06
2023-01-23T19:10:47.715Z,98175.19
2023-01-23T19:13:29.666Z,98170.28
2023-01-23T19:15:59.033Z,98170.00
2023-01-23T19:18:41.723Z,98178.88
2023-01-23T19:21:16.200Z,98177.88
2023-01-23T19:24:03.174Z,98178.09
2023-01-23T19:26:35.126Z,98184.53
2023-01-23T19:29:19.156Z,98172.28
2023-01-23T19:32:02.840Z,98171.50
2023-01-23T19:34:30.673Z,98173.72
2023-01-23T19:36:57.403Z,98160.75
2023-01-23T19:39:25.502Z,98164.66
2023-01-23T19:41:53.400Z,98164.63
2023-01-23T19:44:24.212Z,98166.84
2023-01-23T19:46:51.303Z,98163.13
2023-01-23T19:49:18.224Z,98154.75
2023-01-23T19:51:45.156Z,98153.28
2023-01-23T19:54:13.712Z,98155.75
2023-01-23T19:56:41.274Z,98162.69
2023-01-23T19:59:08.294Z,98160.47
2023-01-23T20:01:38.705Z,98167.56
2023-01-23T20:04:07.676Z,98160.16
2023-01-23T20:06:38.793Z,98166.53
2023-01-23T20:09:05.755Z,98163.56
2023-01-23T20:11:32.505Z,98169.69
2023-01-23T20:13:59.273Z,98174.38
2023-01-23T20:16:26.780Z,98175.09
2023-01-23T20:18:56.566Z,98175.09
2023-01-23T20:21:27.592Z,98181.97
2023-01-23T20:23:54.344Z,98191.78
2023-01-23T20:26:21.678Z,98181.94
2023-01-23T20:28:53.416Z,98178.75
2023-01-23T20:31:20.576Z,98183.88
2023-01-23T20:33:47.549Z,98180.91
2023-01-23T20:36:15.931Z,98186.09
2023-01-23T20:38:43.047Z,98187.56
2023-01-23T20:41:15.524Z,98190.47
2023-01-23T20:43:43.260Z,98194.44
2023-01-23T20:46:11.151Z,98188.09
2023-01-23T20:48:39.737Z,98179.97
2023-01-23T20:51:09.623Z,98194.66
2023-01-23T20:53:39.506Z,98181.59
2023-01-23T20:56:12.300Z,98185.06
2023-01-23T20:59:03.944Z,98189.03
2023-01-23T21:01:54.569Z,98177.44
2023-01-23T21:04:22.877Z,98173.97
2023-01-23T21:06:49.580Z,98171.75
2023-01-23T21:09:17.568Z,98170.50
2023-01-23T21:11:44.436Z,98166.09
2023-01-23T21:14:11.183Z,98156.50
2023-01-23T21:16:37.836Z,98163.94
2023-01-23T21:19:04.956Z,98150.38
2023-01-23T21:21:31.895Z,98143.47
2023-01-23T21:23:58.851Z,98145.16
2023-01-23T21:26:27.239Z,98154.97
2023-01-23T21:28:55.638Z,98154.97
2023-01-23T21:31:32.897Z,98156.72
2023-01-23T21:34:01.384Z,98152.53
2023-01-23T21:36:28.359Z,98156.72
2023-01-23T21:38:55.312Z,98157.94
2023-01-23T21:41:22.900Z,98160.88
2023-01-23T21:43:49.878Z,98161.41
2023-01-23T21:46:16.703Z,98160.38
2023-01-23T21:48:43.808Z,98154.69
2023-01-23T21:51:11.843Z,98159.09
2023-01-23T21:53:40.640Z,98154.41
2023-01-23T21:56:08.563Z,98167.19
2023-01-23T21:58:35.741Z,98157.88
2023-01-23T22:01:24.283Z,98169.41
2023-01-23T22:03:51.756Z,98166.94
2023-01-23T22:06:18.446Z,98179.00
2023-01-23T22:08:45.995Z,98170.88
2023-01-23T22:11:12.931Z,98166.72
2023-01-23T22:13:39.798Z,98167.66
2023-01-23T22:16:07.148Z,98155.13
2023-01-23T22:18:34.385Z,98166.66
2023-01-23T22:21:02.851Z,98162.00
2023-01-23T22:23:30.139Z,98148.47
2023-01-23T22:25:59.254Z,98155.34
2023-01-23T22:28:26.168Z,98149.94
2023-01-23T22:30:52.907Z,98156.06
2023-01-23T22:33:20.372Z,98160.75
2023-01-23T22:35:48.175Z,98166.38
2023-01-23T22:38:16.329Z,98167.88
2023-01-23T22:40:43.422Z,98174.97
2023-01-23T22:43:10.310Z,98177.66
2023-01-23T22:45:37.083Z,98170.53
2023-01-23T22:48:03.988Z,98176.88
2023-01-23T22:50:30.733Z,98196.03
2023-01-23T22:52:57.600Z,98177.88
2023-01-23T22:55:24.348Z,98182.03
2023-01-23T22:57:53.041Z,98181.31
2023-01-23T23:00:20.639Z,98178.09
2023-01-23T23:02:47.489Z,98181.53
2023-01-23T23:05:14.206Z,98189.63
2023-01-23T23:07:40.981Z,98175.66
2023-01-23T23:10:09.516Z,98185.72
2023-01-23T23:12:36.290Z,98176.13
2023-01-23T23:15:03.304Z,98177.88
2023-01-23T23:17:30.349Z,98175.66
2023-01-23T23:19:57.107Z,98179.09
2023-01-23T23:22:23.897Z,98171.47
2023-01-23T23:24:50.529Z,98170.03
2023-01-23T23:27:17.360Z,98175.69
2023-01-23T23:29:44.159Z,98170.06
2023-01-23T23:32:10.983Z,98172.78
2023-01-23T23:34:37.709Z,98177.66
2023-01-23T23:37:04.850Z,98176.72
2023-01-23T23:39:31.486Z,98166.38
2023-01-23T23:41:58.698Z,98165.66
2023-01-23T23:44:25.475Z,98173.53
2023-01-23T23:46:52.334Z,98167.63
2023-01-23T23:49:19.016Z,98168.34
2023-01-23T23:51:45.748Z,98160.25
2023-01-23T23:54:12.398Z,98160.72
2023-01-23T23:56:39.222Z,98160.66
2023-01-23T23:59:06.019Z,98153.75
